createdAt,value
2018-09-02T00:01:16.633Z,18.67
2018-09-02T00:03:44.659Z,17.62
2018-09-02T00:06:12.743Z,17.05
2018-09-02T00:08:41.172Z,17.55
2018-09-02T00:11:09.249Z,18.67
2018-09-02T00:13:37.312Z,17.40
2018-09-02T00:16:05.368Z,27.87
2018-09-02T00:18:33.427Z,17.82
2018-09-02T00:21:01.463Z,17.30
2018-09-02T00:23:29.504Z,17.77
2018-09-02T00:25:57.587Z,17.47
2018-09-02T00:28:25.660Z,17.60
2018-09-02T00:30:53.727Z,17.02
2018-09-02T00:33:21.833Z,17.50
2018-09-02T00:35:49.852Z,17.30
2018-09-02T00:38:17.940Z,18.10
2018-09-02T00:40:46.008Z,18.20
2018-09-02T00:43:14.040Z,17.20
2018-09-02T00:45:42.106Z,18.17
2018-09-02T00:48:10.144Z,18.35
2018-09-02T00:50:38.201Z,18.65
2018-09-02T00:53:06.292Z,17.85
2018-09-02T00:55:34.485Z,17.80
2018-09-02T00:58:02.564Z,18.05
2018-09-02T01:00:30.656Z,18.55
2018-09-02T01:02:58.704Z,17.53
2018-09-02T01:05:26.780Z,18.57
2018-09-02T01:07:55.271Z,18.00
2018-09-02T01:10:23.365Z,18.20
2018-09-02T01:12:51.423Z,19.00
2018-09-02T01:15:19.504Z,17.93
2018-09-02T01:17:47.575Z,18.67
2018-09-02T01:20:15.631Z,18.42
2018-09-02T01:22:43.672Z,18.00
2018-09-02T01:25:12.014Z,19.35
2018-09-02T01:27:40.090Z,17.47
2018-09-02T01:30:08.144Z,18.73
2018-09-02T01:32:36.255Z,18.60
2018-09-02T01:35:04.324Z,18.90
2018-09-02T01:37:32.356Z,19.30
2018-09-02T01:40:00.414Z,19.55
2018-09-02T01:42:28.440Z,21.03
2018-09-02T01:44:56.491Z,20.27
2018-09-02T01:47:24.551Z,19.65
2018-09-02T01:49:52.635Z,19.13
2018-09-02T01:52:20.667Z,19.87
2018-09-02T01:54:48.736Z,19.40
2018-09-02T01:57:16.783Z,19.97
2018-09-02T01:59:44.829Z,18.65
2018-09-02T02:02:12.895Z,18.87
2018-09-02T02:04:40.933Z,19.60
2018-09-02T02:07:09.259Z,19.00
2018-09-02T02:09:37.317Z,18.63
2018-09-02T02:12:05.358Z,18.95
2018-09-02T02:14:33.392Z,18.80
2018-09-02T02:17:01.709Z,18.63
2018-09-02T02:19:30.188Z,18.67
2018-09-02T02:21:58.252Z,19.32
2018-09-02T02:24:26.308Z,18.73
2018-09-02T02:26:54.440Z,18.70
2018-09-02T02:29:22.508Z,18.35
2018-09-02T02:31:50.558Z,18.00
2018-09-02T02:34:18.624Z,19.20
2018-09-02T02:36:46.671Z,17.92
2018-09-02T02:39:14.732Z,18.60
2018-09-02T02:41:43.320Z,17.15
2018-09-02T02:44:11.480Z,17.02
2018-09-02T02:46:39.724Z,16.37
2018-09-02T02:49:08.188Z,15.78
2018-09-02T02:51:36.246Z,15.32
2018-09-02T02:54:04.272Z,14.95
2018-09-02T02:56:32.356Z,15.00
2018-09-02T02:59:00.408Z,14.90
2018-09-02T03:01:28.468Z,14.68
2018-09-02T03:03:56.551Z,14.80
2018-09-02T03:06:24.624Z,16.12
2018-09-02T03:08:52.770Z,14.40
2018-09-02T03:11:20.842Z,15.55
2018-09-02T03:13:48.944Z,14.40
2018-09-02T03:16:17.015Z,14.33
2018-09-02T03:18:45.099Z,13.70
2018-09-02T03:21:13.185Z,14.65
2018-09-02T03:23:41.241Z,14.40
2018-09-02T03:26:09.311Z,14.20
2018-09-02T03:28:37.356Z,14.28
2018-09-02T03:31:05.859Z,14.78
2018-09-02T03:33:34.152Z,14.50
2018-09-02T03:36:02.220Z,14.87
2018-09-02T03:38:30.273Z,15.50
2018-09-02T03:40:58.364Z,14.40
2018-09-02T03:43:26.387Z,16.20
2018-09-02T03:45:54.456Z,15.10
2018-09-02T03:48:22.509Z,17.00
2018-09-02T03:50:50.572Z,15.83
2018-09-02T03:53:18.639Z,14.95
2018-09-02T03:55:46.691Z,15.40
2018-09-02T03:58:14.747Z,15.03
2018-09-02T04:00:42.832Z,14.55
2018-09-02T04:03:10.907Z,14.30
2018-09-02T04:05:38.960Z,15.18
2018-09-02T04:08:07.040Z,14.40
2018-09-02T04:10:35.073Z,14.03
2018-09-02T04:13:03.165Z,15.98
2018-09-02T04:15:31.288Z,14.03
2018-09-02T04:17:59.346Z,14.43
2018-09-02T04:20:32.231Z,15.25
2018-09-02T04:23:00.497Z,15.18
2018-09-02T04:25:28.789Z,14.68
2018-09-02T04:27:56.820Z,14.30
2018-09-02T04:30:24.997Z,14.43
2018-09-02T04:32:53.292Z,13.93
2018-09-02T04:35:21.787Z,13.45
2018-09-02T04:37:49.832Z,14.10
2018-09-02T04:40:17.887Z,13.10
2018-09-02T04:42:45.964Z,14.87
2018-09-02T04:45:14.070Z,15.53
2018-09-02T04:47:42.060Z,13.95
2018-09-02T04:50:16.728Z,15.28
2018-09-02T04:52:44.794Z,14.68
2018-09-02T04:55:12.918Z,14.10
2018-09-02T04:57:41.876Z,14.50
2018-09-02T05:00:09.957Z,16.15
2018-09-02T05:02:37.967Z,16.30
2018-09-02T05:05:06.016Z,15.20
2018-09-02T05:07:34.800Z,14.60
2018-09-02T05:10:02.868Z,16.10
2018-09-02T05:12:30.952Z,15.03
2018-09-02T05:14:59.004Z,15.60
2018-09-02T05:17:30.661Z,16.05
2018-09-02T05:19:59.131Z,15.90
2018-09-02T05:22:27.605Z,17.15
2018-09-02T05:24:55.673Z,17.53
2018-09-02T05:27:23.731Z,17.82
2018-09-02T05:29:52.437Z,18.12
2018-09-02T05:32:21.384Z,16.23
2018-09-02T05:34:49.476Z,16.93
2018-09-02T05:37:17.625Z,17.20
2018-09-02T05:39:45.688Z,17.20
2018-09-02T05:44:48.260Z,17.00
2018-09-02T05:47:16.324Z,15.93
2018-09-02T05:49:44.398Z,17.25
2018-09-02T05:52:12.452Z,17.60
2018-09-02T05:54:40.504Z,17.30
2018-09-02T05:57:08.576Z,17.30
2018-09-02T05:59:36.665Z,18.20
2018-09-02T06:02:04.807Z,18.40
2018-09-02T06:04:32.867Z,18.45
2018-09-02T06:07:00.899Z,18.15
2018-09-02T06:09:28.954Z,18.90
2018-09-02T06:11:56.994Z,18.20
2018-09-02T06:14:25.034Z,18.92
2018-09-02T06:16:53.364Z,19.33
2018-09-02T06:19:21.419Z,19.42
2018-09-02T06:21:49.480Z,19.70
2018-09-02T06:24:17.536Z,18.97
2018-09-02T06:26:45.564Z,19.10
2018-09-02T06:29:13.649Z,18.35
2018-09-02T06:31:41.676Z,17.73
2018-09-02T06:34:09.744Z,17.20
2018-09-02T06:36:37.803Z,17.80
2018-09-02T06:39:08.476Z,17.65
2018-09-02T06:41:36.828Z,16.93
2018-09-02T06:44:05.015Z,16.93
2018-09-02T06:46:33.088Z,17.35
2018-09-02T06:49:01.159Z,16.87
2018-09-02T06:51:29.220Z,15.60
2018-09-02T06:53:57.396Z,15.40
2018-09-02T06:56:25.455Z,15.43
2018-09-02T06:58:53.533Z,14.68
2018-09-02T07:01:22.117Z,14.78
2018-09-02T07:03:50.185Z,14.60
2018-09-02T07:06:18.248Z,14.70
2018-09-02T07:08:46.326Z,14.33
2018-09-02T07:11:14.380Z,14.33
2018-09-02T07:13:42.446Z,13.30
2018-09-02T07:16:10.540Z,14.23
2018-09-02T07:18:38.974Z,13.30
2018-09-02T07:21:07.019Z,13.85
2018-09-02T07:23:35.117Z,14.00
2018-09-02T07:26:03.187Z,13.70
2018-09-02T07:28:31.260Z,14.83
2018-09-02T07:30:59.320Z,13.45
2018-09-02T07:33:27.403Z,13.58
2018-09-02T07:35:55.471Z,13.68
2018-09-02T07:38:23.529Z,12.88
2018-09-02T07:40:51.577Z,13.20
2018-09-02T07:43:19.924Z,13.00
2018-09-02T07:45:47.968Z,13.85
2018-09-02T07:48:16.013Z,13.28
2018-09-02T07:50:44.088Z,12.68
2018-09-02T07:53:12.151Z,11.80
2018-09-02T07:55:40.196Z,12.93
2018-09-02T07:58:08.264Z,12.33
2018-09-02T08:00:36.411Z,10.90
2018-09-02T08:03:04.444Z,10.35
2018-09-02T08:05:32.523Z,10.03
2018-09-02T08:08:00.610Z,10.43
2018-09-02T08:10:28.636Z,10.15
2018-09-02T08:12:56.824Z,8.80
2018-09-02T08:15:24.731Z,8.58
2018-09-02T08:17:52.784Z,9.20
2018-09-02T08:20:20.852Z,9.18
2018-09-02T08:22:48.931Z,8.08
2018-09-02T08:25:17.068Z,7.20
2018-09-02T08:27:45.497Z,7.08
2018-09-02T08:30:13.576Z,7.15
2018-09-02T08:32:41.602Z,7.62
2018-09-02T08:35:09.678Z,7.70
2018-09-02T08:37:37.708Z,7.90
2018-09-02T08:40:06.119Z,8.23
2018-09-02T08:42:34.153Z,8.05
2018-09-02T08:45:02.217Z,7.30
2018-09-02T08:47:30.268Z,6.70
2018-09-02T08:49:58.333Z,6.97
2018-09-02T08:52:26.373Z,6.70
2018-09-02T08:54:54.694Z,7.08
2018-09-02T08:57:22.712Z,6.60
2018-09-02T08:59:50.780Z,6.17
2018-09-02T09:02:18.768Z,6.72
2018-09-02T09:04:46.860Z,6.40
2018-09-02T09:07:14.904Z,5.60
2018-09-02T09:09:42.988Z,5.85
2018-09-02T09:12:11.053Z,6.00
2018-09-02T09:14:39.096Z,4.50
2018-09-02T09:17:07.216Z,4.70
2018-09-02T09:19:35.192Z,4.43
2018-09-02T09:22:03.251Z,4.50
2018-09-02T09:24:31.277Z,4.90
2018-09-02T09:26:59.322Z,4.60
2018-09-02T09:29:27.378Z,5.08
2018-09-02T09:31:55.442Z,4.90
2018-09-02T09:34:23.516Z,5.08
2018-09-02T09:36:51.577Z,5.00
2018-09-02T09:39:19.616Z,5.30
2018-09-02T09:41:47.652Z,5.30
2018-09-02T09:44:15.681Z,4.92
2018-09-02T09:46:43.728Z,4.90
2018-09-02T09:49:11.773Z,4.80
2018-09-02T09:51:40.229Z,4.70
2018-09-02T09:54:08.351Z,4.80
2018-09-02T09:56:36.402Z,4.67
2018-09-02T09:59:04.472Z,4.80
2018-09-02T10:01:32.545Z,4.60
2018-09-02T10:04:00.580Z,4.80
2018-09-02T10:06:28.663Z,5.10
2018-09-02T10:08:56.716Z,4.90
2018-09-02T10:11:24.755Z,4.67
2018-09-02T10:13:52.821Z,4.70
2018-09-02T10:16:20.860Z,4.83
2018-09-02T10:18:48.919Z,4.53
2018-09-02T10:21:16.945Z,4.60
2018-09-02T10:23:45.018Z,4.77
2018-09-02T10:26:13.062Z,4.55
2018-09-02T10:28:41.089Z,4.60
2018-09-02T10:31:09.127Z,4.60
2018-09-02T10:33:37.209Z,4.50
2018-09-02T10:36:05.784Z,5.00
2018-09-02T10:38:33.808Z,4.15
2018-09-02T10:41:01.874Z,4.20
2018-09-02T10:43:29.908Z,4.10
2018-09-02T10:45:57.971Z,4.20
2018-09-02T10:48:26.045Z,4.25
2018-09-02T10:50:54.112Z,4.45
2018-09-02T10:53:22.144Z,4.40
2018-09-02T10:55:50.222Z,4.50
2018-09-02T10:58:18.271Z,4.60
2018-09-02T11:00:46.304Z,4.08
2018-09-02T11:03:14.391Z,4.40
2018-09-02T11:05:42.432Z,4.05
2018-09-02T11:08:10.472Z,4.03
2018-09-02T11:10:38.528Z,3.92
2018-09-02T11:13:06.785Z,4.00
2018-09-02T11:15:34.794Z,4.00
2018-09-02T11:18:02.816Z,3.85
2018-09-02T11:20:30.892Z,4.03
2018-09-02T11:22:58.932Z,4.00
2018-09-02T11:25:26.984Z,3.90
2018-09-02T11:27:55.020Z,3.85
2018-09-02T11:30:23.109Z,3.90
2018-09-02T11:32:51.132Z,3.90
2018-09-02T11:35:19.161Z,3.80
2018-09-02T11:37:47.200Z,3.85
2018-09-02T11:40:15.270Z,4.30
2018-09-02T11:42:43.268Z,3.90
2018-09-02T11:45:11.368Z,3.80
2018-09-02T11:47:39.327Z,3.62
2018-09-02T11:50:07.375Z,4.67
2018-09-02T11:52:35.415Z,4.20
2018-09-02T11:55:03.572Z,3.80
2018-09-02T11:57:31.624Z,3.98
2018-09-02T11:59:59.697Z,4.10
2018-09-02T12:02:27.735Z,4.33
2018-09-02T12:04:55.985Z,4.20
2018-09-02T12:07:23.914Z,4.12
2018-09-02T12:09:51.936Z,4.20
2018-09-02T12:12:19.981Z,3.77
2018-09-02T12:14:48.027Z,4.20
2018-09-02T12:17:16.056Z,3.70
2018-09-02T12:19:44.112Z,4.00
2018-09-02T12:22:12.176Z,4.30
2018-09-02T12:24:40.232Z,3.55
2018-09-02T12:27:08.292Z,3.80
2018-09-02T12:29:36.387Z,3.80
2018-09-02T12:32:04.430Z,4.10
2018-09-02T12:34:32.516Z,3.98
2018-09-02T12:37:00.575Z,3.70
2018-09-02T12:39:28.620Z,3.85
2018-09-02T12:41:56.652Z,3.87
2018-09-02T12:44:24.832Z,4.90
2018-09-02T12:46:53.144Z,4.15
2018-09-02T12:49:20.943Z,4.10
2018-09-02T12:51:48.992Z,3.65
2018-09-02T12:54:17.061Z,3.33
2018-09-02T12:56:45.903Z,3.70
2018-09-02T12:59:13.931Z,3.90
2018-09-02T13:01:41.992Z,4.10
2018-09-02T13:04:10.038Z,3.72
2018-09-02T13:06:38.116Z,4.08
2018-09-02T13:09:07.206Z,4.50
2018-09-02T13:11:35.260Z,4.10
2018-09-02T13:14:03.434Z,3.90
2018-09-02T13:16:31.473Z,4.00
2018-09-02T13:18:59.568Z,4.10
2018-09-02T13:21:27.613Z,4.10
2018-09-02T13:23:55.707Z,3.92
2018-09-02T13:26:23.676Z,3.72
2018-09-02T13:28:51.728Z,3.80
2018-09-02T13:31:19.744Z,4.00
2018-09-02T13:33:47.835Z,3.60
2018-09-02T13:36:15.800Z,4.00
2018-09-02T13:38:43.828Z,3.55
2018-09-02T13:41:11.883Z,3.80
2018-09-02T13:43:39.924Z,3.65
2018-09-02T13:46:07.939Z,4.22
2018-09-02T13:48:36.137Z,3.62
2018-09-02T13:51:04.214Z,4.28
2018-09-02T13:53:32.285Z,3.50
2018-09-02T13:56:00.360Z,4.00
2018-09-02T13:58:28.397Z,4.58
2018-09-02T14:00:56.521Z,4.10
2018-09-02T14:03:24.520Z,4.20
2018-09-02T14:05:52.591Z,3.70
2018-09-02T14:08:20.716Z,4.40
2018-09-02T14:10:48.673Z,3.10
2018-09-02T14:13:16.699Z,4.70
2018-09-02T14:15:44.752Z,3.60
2018-09-02T14:18:12.787Z,3.90
2018-09-02T14:20:40.834Z,3.80
2018-09-02T14:23:08.857Z,5.40
2018-09-02T14:25:36.921Z,4.03
2018-09-02T14:28:05.107Z,3.80
2018-09-02T14:30:33.124Z,3.75
2018-09-02T14:33:01.508Z,3.80
2018-09-02T14:35:29.512Z,4.00
2018-09-02T14:37:57.870Z,3.70
2018-09-02T14:40:25.933Z,4.05
2018-09-02T14:42:54.008Z,3.40
2018-09-02T14:45:22.065Z,4.40
2018-09-02T14:47:50.085Z,3.90
2018-09-02T14:50:18.137Z,3.65
2018-09-02T14:52:46.202Z,3.50
2018-09-02T14:55:14.284Z,4.05
2018-09-02T14:57:42.324Z,4.50
2018-09-02T15:00:10.344Z,4.00
2018-09-02T15:02:39.213Z,3.30
2018-09-02T15:05:07.684Z,3.22
2018-09-02T15:07:35.776Z,3.70
2018-09-02T15:10:03.827Z,3.53
2018-09-02T15:12:31.886Z,3.50
2018-09-02T15:14:59.901Z,3.90
2018-09-02T15:17:27.952Z,3.50
2018-09-02T15:19:55.968Z,3.90
2018-09-02T15:22:24.000Z,3.93
2018-09-02T15:24:52.039Z,3.62
2018-09-02T15:27:20.132Z,4.10
2018-09-02T15:29:48.104Z,4.40
2018-09-02T15:32:16.199Z,4.12
2018-09-02T15:34:44.248Z,3.93
2018-09-02T15:37:12.313Z,4.10
2018-09-02T15:39:40.340Z,3.77
2018-09-02T15:42:08.403Z,3.50
2018-09-02T15:44:36.459Z,3.50
2018-09-02T15:47:04.536Z,3.95
2018-09-02T15:49:32.583Z,3.35
2018-09-02T15:52:00.632Z,3.10
2018-09-02T15:54:28.759Z,3.20
2018-09-02T15:56:56.788Z,3.40
2018-09-02T15:59:24.996Z,3.95
2018-09-02T16:01:53.016Z,4.15
2018-09-02T16:04:21.044Z,4.08
2018-09-02T16:06:49.090Z,3.60
2018-09-02T16:09:17.132Z,3.60
2018-09-02T16:11:45.205Z,4.10
2018-09-02T16:14:13.284Z,3.52
2018-09-02T16:16:41.364Z,3.70
2018-09-02T16:19:09.399Z,3.60
2018-09-02T16:21:37.524Z,3.97
2018-09-02T16:24:05.680Z,3.70
2018-09-02T16:26:33.705Z,3.83
2018-09-02T16:29:01.829Z,3.50
2018-09-02T16:31:29.923Z,3.50
2018-09-02T16:33:57.975Z,3.60
2018-09-02T16:36:25.993Z,3.85
2018-09-02T16:38:54.049Z,4.00
2018-09-02T16:41:22.155Z,3.93
2018-09-02T16:43:50.172Z,3.90
2018-09-02T16:46:18.188Z,4.78
2018-09-02T16:48:46.248Z,3.90
2018-09-02T16:51:14.312Z,4.30
2018-09-02T16:53:42.380Z,4.80
2018-09-02T16:56:10.417Z,3.83
2018-09-02T16:58:38.528Z,3.92
2018-09-02T17:01:06.492Z,3.60
2018-09-02T17:03:37.629Z,4.00
2018-09-02T17:06:05.714Z,4.20
2018-09-02T17:08:33.744Z,4.50
2018-09-02T17:11:01.829Z,4.00
2018-09-02T17:13:29.897Z,4.08
2018-09-02T17:15:57.917Z,3.70
2018-09-02T17:18:25.964Z,3.80
2018-09-02T17:20:54.026Z,4.00
2018-09-02T17:23:22.072Z,3.85
2018-09-02T17:25:50.204Z,3.67
2018-09-02T17:28:18.181Z,3.83
2018-09-02T17:30:46.201Z,4.40
2018-09-02T17:33:14.800Z,3.90
2018-09-02T17:35:43.203Z,4.22
2018-09-02T17:38:11.217Z,3.90
2018-09-02T17:40:39.249Z,4.10
2018-09-02T17:43:07.292Z,4.10
2018-09-02T17:45:35.363Z,4.53
2018-09-02T17:48:03.376Z,4.25
2018-09-02T17:50:31.431Z,4.42
2018-09-02T17:52:59.487Z,4.35
2018-09-02T17:55:27.567Z,5.00
2018-09-02T17:57:55.773Z,4.70
2018-09-02T18:00:29.694Z,5.17
2018-09-02T18:02:57.723Z,4.70
2018-09-02T18:05:25.796Z,4.50
2018-09-02T18:07:53.843Z,5.33
2018-09-02T18:10:21.904Z,4.90
2018-09-02T18:12:49.952Z,4.33
2018-09-02T18:15:17.988Z,4.80
2018-09-02T18:17:46.057Z,5.70
2018-09-02T18:20:14.124Z,4.65
2018-09-02T18:22:42.193Z,5.00
2018-09-02T18:25:10.628Z,4.57
2018-09-02T18:27:40.821Z,5.60
2018-09-02T18:30:08.885Z,4.90
2018-09-02T18:32:37.014Z,4.60
2018-09-02T18:35:04.987Z,5.53
2018-09-02T18:37:33.019Z,5.50
2018-09-02T18:40:01.056Z,4.90
2018-09-02T18:42:29.092Z,6.00
2018-09-02T18:44:57.182Z,5.78
2018-09-02T18:47:25.263Z,5.92
2018-09-02T18:49:53.352Z,6.30
2018-09-02T18:52:21.404Z,6.20
2018-09-02T18:54:49.460Z,6.20
2018-09-02T18:57:18.369Z,6.33
2018-09-02T18:59:46.408Z,6.90
2018-09-02T19:02:14.527Z,6.80
2018-09-02T19:04:42.592Z,6.90
2018-09-02T19:07:10.659Z,7.40
2018-09-02T19:09:38.863Z,7.80
2018-09-02T19:12:07.648Z,7.53
2018-09-02T19:14:35.925Z,7.58
2018-09-02T19:17:03.979Z,7.97
2018-09-02T19:19:32.028Z,7.70
2018-09-02T19:22:00.208Z,7.72
2018-09-02T19:24:28.276Z,7.80
2018-09-02T19:26:56.321Z,8.70
2018-09-02T19:29:24.389Z,8.30
2018-09-02T19:31:52.463Z,7.97
2018-09-02T19:34:20.515Z,8.40
2018-09-02T19:36:48.560Z,7.60
2018-09-02T19:39:16.612Z,8.40
2018-09-02T19:41:44.644Z,8.45
2018-09-02T19:44:12.697Z,8.55
2018-09-02T19:46:40.782Z,8.60
2018-09-02T19:49:08.832Z,8.35
2018-09-02T19:51:37.187Z,8.68
2018-09-02T19:54:05.532Z,9.23
2018-09-02T19:56:33.593Z,8.65
2018-09-02T19:59:01.635Z,8.80
2018-09-02T20:01:29.709Z,8.70
2018-09-02T20:03:57.960Z,8.75
2018-09-02T20:06:26.031Z,8.83
2018-09-02T20:08:54.101Z,8.28
2018-09-02T20:11:22.165Z,8.83
2018-09-02T20:13:50.258Z,9.90
2018-09-02T20:16:18.310Z,9.00
2018-09-02T20:18:46.372Z,8.80
2018-09-02T20:21:14.413Z,8.83
2018-09-02T20:23:42.525Z,8.45
2018-09-02T20:26:10.525Z,8.80
2018-09-02T20:28:39.396Z,7.87
2018-09-02T20:31:07.493Z,8.03
2018-09-02T20:33:35.528Z,7.80
2018-09-02T20:36:03.607Z,7.75
2018-09-02T20:38:31.677Z,7.85
2018-09-02T20:40:59.708Z,7.50
2018-09-02T20:43:27.805Z,9.03
2018-09-02T20:45:55.868Z,7.83
2018-09-02T20:48:23.945Z,7.70
2018-09-02T20:50:52.821Z,7.90
2018-09-02T20:53:20.868Z,8.20
2018-09-02T20:55:48.937Z,8.93
2018-09-02T20:58:18.598Z,8.23
2018-09-02T21:00:46.696Z,8.23
2018-09-02T21:03:14.854Z,8.50
2018-09-02T21:05:42.908Z,7.90
2018-09-02T21:08:10.979Z,7.50
2018-09-02T21:10:38.985Z,8.30
2018-09-02T21:13:07.211Z,7.80
2018-09-02T21:15:35.687Z,8.25
2018-09-02T21:18:03.760Z,7.92
2018-09-02T21:20:31.888Z,7.78
2018-09-02T21:22:59.966Z,8.00
2018-09-02T21:25:28.041Z,7.50
2018-09-02T21:27:56.099Z,7.50
2018-09-02T21:30:24.143Z,7.95
2018-09-02T21:32:52.194Z,7.78
2018-09-02T21:35:20.229Z,7.90
2018-09-02T21:37:48.386Z,7.85
2018-09-02T21:40:16.625Z,8.35
2018-09-02T21:42:44.668Z,7.30
2018-09-02T21:45:12.708Z,8.43
2018-09-02T21:47:40.744Z,8.40
2018-09-02T21:50:09.066Z,7.80
2018-09-02T21:52:37.123Z,7.70
2018-09-02T21:55:05.471Z,7.95
2018-09-02T21:57:33.704Z,8.00
2018-09-02T22:00:02.023Z,8.53
2018-09-02T22:02:30.063Z,8.10
2018-09-02T22:04:58.127Z,8.20
2018-09-02T22:07:26.183Z,8.10
2018-09-02T22:09:54.224Z,8.15
2018-09-02T22:12:22.271Z,7.20
2018-09-02T22:14:50.301Z,7.50
2018-09-02T22:17:18.336Z,7.72
2018-09-02T22:19:46.368Z,7.60
2018-09-02T22:22:14.512Z,7.90
2018-09-02T22:24:42.548Z,7.37
2018-09-02T22:27:10.597Z,7.50
2018-09-02T22:29:38.668Z,6.95
2018-09-02T22:32:06.719Z,7.00
2018-09-02T22:34:34.779Z,6.67
2018-09-02T22:37:02.825Z,6.72
2018-09-02T22:39:30.894Z,7.25
2018-09-02T22:41:58.948Z,6.67
2018-09-02T22:44:26.996Z,7.20
2018-09-02T22:46:55.021Z,7.10
2018-09-02T22:49:23.172Z,6.70
2018-09-02T22:51:51.239Z,6.40
2018-09-02T22:54:19.432Z,6.30
2018-09-02T22:56:47.472Z,6.40
2018-09-02T22:59:15.509Z,6.95
2018-09-02T23:01:43.612Z,7.20
2018-09-02T23:04:11.664Z,6.80
2018-09-02T23:06:39.716Z,6.80
2018-09-02T23:09:08.368Z,6.60
2018-09-02T23:11:36.409Z,6.42
2018-09-02T23:14:04.444Z,6.70
2018-09-02T23:16:33.192Z,6.40
2018-09-02T23:19:01.220Z,7.12
2018-09-02T23:21:29.265Z,6.30
2018-09-02T23:23:57.533Z,6.47
2018-09-02T23:26:25.596Z,6.22
2018-09-02T23:28:53.658Z,6.40
2018-09-02T23:31:21.703Z,6.40
2018-09-02T23:33:49.759Z,6.30
2018-09-02T23:36:17.790Z,6.30
2018-09-02T23:38:45.839Z,6.90
2018-09-02T23:41:13.905Z,6.10
2018-09-02T23:43:41.951Z,6.40
2018-09-02T23:46:10.001Z,6.45
2018-09-02T23:48:38.032Z,7.30
2018-09-02T23:51:06.124Z,7.20
2018-09-02T23:53:34.169Z,6.37
2018-09-02T23:56:02.244Z,7.00
2018-09-02T23:58:30.281Z,7.00
